Vuelta a España: Startlist | Stage profiles Other: Transfers 2022 > 2023

Kyle Murphy is a cyclist from USA (born October 5th 1991), who currently rides for Human Powered Health (UCI ProTeam).

Information

2022 2021 2020 2019 2018 2017 2016 2015 2014 2013

UCI?
Human Powered Health (ProTeam) UCI Ranking: 374 (186pts) UCI: Wins: 1 UCI: Race days: 54 UCI: Distance: 8.741km
Date Pos GC Race UCI
27.03 22 GP Industria & Artigianato | 1.Pro 2022-03-275Show more
20.03 DNF Per Sempre Alfredo | 1.1 2022-03-20Show more
27.02 Gran Camiño | 2.1 2022-02-27 Show more
27.02 74 Gran Camiño | Overall 2022-02-27
20.02 Volta ao Algarve | 2.Pro 2022-02-20 Show more
20.02 42 Volta ao Algarve | Overall 2022-02-20
13.02 Tour of Antalya | 2.1 2022-02-13 Show more
13.02 5 Tour of Antalya | Overall 2022-02-1350
02.04 33 GP Miguel Indurain | 1.Pro 2022-04-023Show more
17.04 Tour of Türkiye | 2.Pro 2022-04-17 Show more
17.04 103 Tour of Türkiye | Overall 2022-04-17
31.07 120 Circuito de Getxo | 1.1 2022-07-31Show more
25.07 104 Villafranca de Ordizia | 1.1 2022-07-25Show more
16.07 2 NY Capital Region | NE 2022-07-16Show more
26.06 1 USA RR | CN 2022-06-26100Show more
19.06 Tour de Suisse | 2.UWT 2022-06-19 Show more
19.06 DNF Tour de Suisse | Overall 2022-06-19
10.06 DNF GP Kanton Aargau | 1.1 2022-06-10Show more
15.05 Tour de Hongrie | 2.1 2022-05-15 Show more
15.05 86 Tour de Hongrie | Overall 2022-05-15
01.05 Tour of Hellas | 2.1 2022-05-01 Show more
01.05 61 Tour of Hellas | Overall 2022-05-01
15.08 Volta a Portugal | 2.1 2022-08-15 Show more
15.08 86 Volta a Portugal | Overall 2022-08-15
13.02 14 Tour of Antalya | Points 2022-02-13
15.08 48 Volta a Portugal | Points 2022-08-15
13.02 12 Tour of Antalya | Mountain 2022-02-13
15.08 38 86 Volta a Portugal | 10th stage 2022-08-15
14.08 59 88 Volta a Portugal | 9th stage 2022-08-14
13.08 72 91 Volta a Portugal | 8th stage 2022-08-13
12.08 102 98 Volta a Portugal | 7th stage 2022-08-12
11.08 76 91 Volta a Portugal | 6th stage 2022-08-11
10.08 92 94 Volta a Portugal | 5th stage 2022-08-10
08.08 84 90 Volta a Portugal | 4th stage 2022-08-08
07.08 108 100 Volta a Portugal | 3rd stage 2022-08-07
06.08 97 103 Volta a Portugal | 2nd stage 2022-08-06
05.08 101 111 Volta a Portugal | 1st stage 2022-08-05
04.08 15 15 Volta a Portugal | Prologue 2022-08-04
17.06 DNF Tour de Suisse | 6th stage 2022-06-17
16.06 123 122 Tour de Suisse | 5th stage 2022-06-16
15.06 141 142 Tour de Suisse | 4th stage 2022-06-15
14.06 147 147 Tour de Suisse | 3rd stage 2022-06-14
13.06 148 149 Tour de Suisse | 2nd stage 2022-06-13
12.06 148 148 Tour de Suisse | 1st stage 2022-06-12
15.05 14 86 Tour de Hongrie | 5th stage 2022-05-15
14.05 104 110 Tour de Hongrie | 4th stage 2022-05-14
13.05 119 113 Tour de Hongrie | 3rd stage 2022-05-13
12.05 120 120 Tour de Hongrie | 2nd stage 2022-05-12
11.05 120 120 Tour de Hongrie | 1st stage 2022-05-11
01.05 102 61 Tour of Hellas | 5th stage 2022-05-01
30.04 112 50 Tour of Hellas | 4th stage 2022-04-30
29.04 74 48 Tour of Hellas | 3rd stage 2022-04-29
28.04 90 49 Tour of Hellas | 2nd stage 2022-04-28
27.04 51 51 Tour of Hellas | 1st stage 2022-04-27
16.04 149 103 Tour of Türkiye | 7th stage 2022-04-16
15.04 142 93 Tour of Türkiye | 6th stage 2022-04-15
14.04 141 86 Tour of Türkiye | 5th stage 2022-04-14
13.04 120 88 Tour of Türkiye | 4th stage 2022-04-13
12.04 161 66 Tour of Türkiye | 3rd stage 2022-04-12
11.04 62 56 Tour of Türkiye | 2nd stage 2022-04-11
10.04 61 61 Tour of Türkiye | 1st stage 2022-04-10
27.02 22 74 Gran Camiño | 4th stage 2022-02-27
26.02 63 79 Gran Camiño | 3rd stage 2022-02-26
25.02 81 78 Gran Camiño | 2nd stage 2022-02-25
24.02 84 85 Gran Camiño | 1st stage 2022-02-24
20.02 25 42 Volta ao Algarve | 5th stage 2022-02-20
19.02 95 54 Volta ao Algarve | 4th stage 2022-02-19
18.02 143 53 Volta ao Algarve | 3rd stage 2022-02-18
17.02 34 46 Volta ao Algarve | 2nd stage 2022-02-17
16.02 149 149 Volta ao Algarve | 1st stage 2022-02-16
13.02 80 5 Tour of Antalya | 4th stage 2022-02-13
12.02 5 8 Tour of Antalya | 3rd stage 2022-02-12
11.02 31 58 Tour of Antalya | 2nd stage 2022-02-11
10.02 103 103 Tour of Antalya | 1st stage 2022-02-10